Walls, MS (38686)

4:13 AM CST on February 09, 2016 (GMT -0600)
Allen Combined Cycle Plant | | Change Station
CLOSE
Current Station
Personal Weather Station
Location: Memphis, TN
Elevation: 197 ft
Nearby Weather Stations

Elev 197 ft 35.07 °N, 90.14 °W | Updated 22 seconds ago

Overcast
Overcast
33.8 °F
Feels Like 29 °F
N
5.6
Wind Variable Wind from NNW
Gusts 7.4 mph

Today
High -- | Low -- °F
--% Chance of Precip.
Yesterday
High -- | Low -- °F
Precip. -- in
Pressure 29.96 in
Visibility 10.0 miles
Clouds Overcast 5500 ft
Windchill 29 °F
Dew Point 21 °F
Humidity 58%
Rainfall 0.00 in
Snow Depth Not available.
6:52 AM 5:37 PM
New Moon, 1% visible
METAR KMEM 090954Z 32009KT 10SM OVC055 01/M08 A2995 RMK AO2 SLP144 T00061078
Pressure 29.96 in
Visibility 10.0 miles
Clouds Overcast 5500 ft
Windchill 29 °F
Dew Point 21 °F
Humidity 58%
Rainfall 0.00 in
Snow Depth Not available.
6:52 AM 5:37 PM
New Moon, 1% visible
METAR KMEM 090954Z 32009KT 10SM OVC055 01/M08 A2995 RMK AO2 SLP144 T00061078

10-Day Weather Forecast

Almanac

Astronomy

Feb. 09, 2016 Rise Set
Actual Time
Civil Twilight
Nautical Twilight
Astronomical Twilight
Moon
Length of Visible Light
Length of Day
Tomorrow will be .
, % of the Moon is Illuminated

Today's Extremes

State Highs State Lows

Community

WunderPhotos

Upload Photos

1,891,565 photos uploaded!

WunderBlog® & News

Nearby

Air Quality

  Air Quality AQ Index Pollutant
Not available.

Snow Depth

Station Depth Elevation

Earthquake Activity

City Distance Mag. Time & Date
Minimum magnitude displayed is 2.5.

Coastal Water Temperatures

Place Temperature

Stations

Nearby Weather Stations

Station Location Temp. Windchill Dew Point Humidity Wind Precip. Elev Updated Type
                   

Watches & Warnings

There are currently no watches in effect.